• Join FlightAware (Why Join?)
  • Login
  • US Flag GB Flag 
22:13 EST


 

Airport Tracker/Info


-or-


 

Live Flight TrackerFlight Track Log ✈ N559LC ✈ 05-Oct-2013 ✈ KOAK - KDTW

Flight Track Log - Related Links

Times and Time Zones

All times are in EDT time to prevent confusion due to time zone crossing. See the N559LC flight status page for this flight to view local times or setup timezone preferences in your user account.

Time Position Orientation Groundspeed Altitude Reporting Facility
EDT Latitude Longitude Course Direction KTS MPH feet Rate Location/Type
01:13 37.7333 -122.3000 75° East 217 250 3,400  Level Northern Cal TRACON
01:14 37.7667 -122.3667 302° West 208 239 6,300 2,340 Climbing Northern Cal TRACON
01:16 37.8697 -122.2906 30° Northeast 281 323 10,000 2,160 Climbing Oakland Center
01:17 37.8861 -122.1961 78° East 279 321 12,400 1,440 Climbing Oakland Center
01:18 37.9889 -121.3262 75° East  Level Estimated
01:18 37.9036 -122.0836 79° East 324 373 13,000  Level Oakland Center
01:23 38.0560 -121.4250 79° East 100 115 21,600 1,620 Climbing FlightAware
01:24 38.0860 -121.3300 68° East 424 488 22,700 1,680 Climbing FlightAware
01:24 38.1040 -121.2760 67° East 427 491 23,300 600 Climbing FlightAware
01:25 38.1260 -121.1980 70° East 427 491 23,300  Level FlightAware
01:25 38.1470 -121.1230 70° East 427 491 23,300  Level FlightAware
01:26 38.1680 -121.0510 70° East 427 491 23,300  Level FlightAware
01:26 38.1890 -120.9790 70° East 427 491 23,300  Level FlightAware
01:27 38.2090 -120.9070 71° East 427 491 23,300  Level FlightAware
01:28 38.2300 -120.8340 70° East 427 491 23,300 4,260 Level FlightAware
01:28 38.2900 -120.6820 63° Northeast 427 491 28,300 5,520 Climbing FlightAware
01:29 38.3260 -120.5650 69° East 475 547 29,500 1,980 Climbing FlightAware
01:29 38.3560 -120.4710 68° East 471 542 30,600 1,500 Climbing FlightAware
01:30 38.3810 -120.3870 69° East 465 535 31,500 1,080 Climbing FlightAware
01:31 38.4150 -120.2780 68° East 465 535 32,000 1,860 Climbing FlightAware
01:31 38.4440 -120.1830 69° East 457 526 33,700 2,400 Climbing FlightAware
01:32 38.4700 -120.0930 70° East 452 520 35,000 1,740 Climbing FlightAware
01:32 38.4940 -120.0180 68° East 445 512 35,700 1,200 Climbing FlightAware
01:33 38.5190 -119.9340 69° East 443 510 36,400 540 Climbing FlightAware
01:34 38.5420 -119.8570 69° East 443 510 36,400 840 Level FlightAware
01:34 38.5800 -119.7330 69° East 446 513 37,600 840 Climbing FlightAware
01:35 38.6040 -119.6580 68° East 446 513 37,600  Level FlightAware
01:36 38.6280 -119.5840 67° East 446 513 37,600  Level FlightAware
01:36 38.6510 -119.5090 69° East 446 513 37,600  Level FlightAware
01:37 38.6760 -119.4320 67° East 446 513 37,600  Level FlightAware
01:37 38.6990 -119.3570 69° East 446 513 37,600  Level FlightAware
01:38 38.7230 -119.2820 68° East 446 513 37,600  Level FlightAware
01:39 38.7470 -119.2060 68° East 446 513 37,600  Level FlightAware
01:39 38.7700 -119.1310 69° East 446 513 37,600  Level FlightAware
01:40 38.7870 -119.0790 67° East 446 513 37,600  Level FlightAware
01:40 38.8090 -119.0080 68° East 446 513 37,600  Level FlightAware
01:41 38.8330 -118.9310 68° East 446 513 37,600  Level FlightAware
01:41 38.8570 -118.8560 68° East 446 513 37,600  Level FlightAware
01:42 38.8810 -118.7810 68° East 446 513 37,600  Level FlightAware
01:43 38.9040 -118.7050 69° East 446 513 37,600  Level FlightAware
01:43 38.9290 -118.6280 67° East 446 513 37,600  Level FlightAware
01:44 38.9520 -118.5530 68° East 446 513 37,600 2,100 Level FlightAware
01:45 39.0656 -118.0581 68° East 476 548 41,000 1,680 Climbing Oakland Center
01:46 39.1111 -117.9000 70° East 474 545 41,000  Level Oakland Center
01:47 39.1544 -117.7419 70° East 472 543 41,000  Level Oakland Center
01:48 39.1983 -117.5828 70° East 473 544 41,000  Level Oakland Center
01:49 39.2417 -117.4236 71° East 472 543 41,000  Level Oakland Center
01:51 39.3333 -117.0894 70° East 463 533 41,000  Level Oakland Center
01:52 39.3739 -116.9397 71° East 462 532 41,000  Level Oakland Center
01:53 39.4133 -116.7903 71° East 462 532 41,000  Level Oakland Center
01:54 39.4608 -116.6153 71° East 462 532 41,000  Level Oakland Center
01:55 39.4997 -116.4653 71° East 462 532 41,000  Level Oakland Center
01:56 39.5403 -116.3158 71° East 461 531 41,000  Level Oakland Center
01:57 39.5789 -116.1642 72° East 463 533 41,000  Level Oakland Center
01:58 39.6378 -115.9372 71° East 460 529 41,000  Level Salt Lake Center
01:59 39.6842 -115.7589 71° East 467 537 41,000  Level Salt Lake Center
02:00 39.7233 -115.6064 71° East 466 536 41,000  Level Salt Lake Center
02:01 39.7614 -115.4556 72° East 462 532 41,000  Level Salt Lake Center
02:02 39.8081 -115.2733 72° East 474 545 41,000  Level Salt Lake Center
02:03 39.8472 -115.1222 71° East 465 535 41,000  Level Salt Lake Center
02:04 39.8839 -114.9697 73° East 463 533 41,000  Level Salt Lake Center
02:05 39.9225 -114.8172 72° East 463 533 41,000  Level Salt Lake Center
02:06 39.9622 -114.6544 72° East 464 534 41,000  Level Salt Lake Center
02:07 40.0019 -114.4958 72° East 462 532 41,000  Level Salt Lake Center
02:08 40.0394 -114.3372 73° East 460 529 41,000  Level Salt Lake Center
02:09 40.0775 -114.1789 73° East 459 528 41,000  Level Salt Lake Center
02:10 40.1164 -114.0203 72° East 460 529 41,000  Level Salt Lake Center
02:11 40.1544 -113.8589 73° East 466 536 41,000  Level Salt Lake Center
02:12 40.1917 -113.6997 73° East 460 529 41,000  Level Salt Lake Center
02:13 40.2306 -113.5400 72° East 461 531 41,000  Level Salt Lake Center
02:14 40.2675 -113.3800 73° East 462 532 41,000  Level Salt Lake Center
02:15 40.3033 -113.2206 74° East 460 529 41,000  Level Salt Lake Center
02:16 40.3403 -113.0600 73° East 461 531 41,000  Level Salt Lake Center
02:17 40.3781 -112.8994 73° East 462 532 41,000  Level Salt Lake Center
02:18 40.4200 -112.7083 74° East 458 527 41,000  Level Salt Lake Center
02:19 40.4561 -112.5503 73° East 459 528 41,000  Level Salt Lake Center
02:20 40.4911 -112.3933 74° East 451 519 41,000  Level Salt Lake Center
02:21 40.5267 -112.2344 74° East 456 525 41,000  Level Salt Lake Center
02:22 40.5608 -112.0742 74° East 460 529 41,000  Level Salt Lake Center
02:23 40.5964 -111.9128 74° East 463 533 41,000  Level Salt Lake Center
02:24 40.6322 -111.7539 73° East 460 529 41,000  Level Salt Lake Center
02:25 40.6647 -111.5953 75° East 454 522 41,000  Level Salt Lake Center
02:26 40.6939 -111.4353 76° East 454 522 41,000  Level Salt Lake Center
02:27 40.7222 -111.2750 77° East 454 522 41,000  Level Salt Lake Center
02:28 40.7522 -111.1144 76° East 454 522 41,000  Level Salt Lake Center
02:29 40.7803 -110.9506 77° East 459 528 41,000  Level Salt Lake Center
02:30 40.8081 -110.7883 77° East 457 526 41,000  Level Salt Lake Center
02:31 40.8372 -110.6258 77° East 457 526 41,000  Level Salt Lake Center
02:32 40.8672 -110.4478 77° East 458 527 41,000  Level Salt Lake Center
02:33 40.8942 -110.2925 77° East 456 525 41,000  Level Salt Lake Center
02:34 40.9194 -110.1369 78° East 454 522 41,000  Level Salt Lake Center
02:35 40.9506 -109.9578 77° East 450 518 41,000  Level Salt Lake Center
02:36 40.9753 -109.8067 78° East 442 509 41,000  Level Salt Lake Center
02:37 41.0008 -109.6547 77° East 443 510 41,000  Level Salt Lake Center
02:38 41.0303 -109.4736 78° East 452 520 41,000  Level Salt Lake Center
02:40 41.0550 -109.3183 78° East 455 524 41,000  Level Salt Lake Center
02:41 41.0803 -109.1625 78° East 456 525 41,000  Level Salt Lake Center
02:42 41.1092 -108.9800 78° East 458 527 41,000  Level Salt Lake Center
02:43 41.1344 -108.8256 78° East 455 524 41,000  Level Salt Lake Center
02:44 41.1586 -108.6714 78° East 450 518 41,000  Level Salt Lake Center
02:45 41.1867 -108.4875 78° East 457 526 41,000  Level Salt Lake Center
02:46 41.2103 -108.3339 78° East 451 519 41,000  Level Salt Lake Center
02:46 41.2222 -108.2553 79° East 450 518 41,000  Level Denver Center
02:47 41.2489 -108.0744 79° East 448 516 41,000  Level Denver Center
02:48 41.2717 -107.9211 79° East 443 510 41,000  Level Denver Center
02:49 41.2947 -107.7675 79° East 443 510 41,000  Level Denver Center
02:50 41.3208 -107.5878 79° East 443 510 41,000  Level Denver Center
02:51 41.3431 -107.4336 79° East 445 512 41,000  Level Denver Center
02:52 41.3658 -107.2792 79° East 444 511 41,000  Level Denver Center
02:53 41.3900 -107.1000 80° East 443 510 41,000  Level Denver Center
02:54 41.4136 -106.9439 79° East 448 516 41,000  Level Denver Center
02:55 41.4331 -106.7883 80° East 448 516 41,000  Level Denver Center
02:56 41.4550 -106.6322 79° East 449 517 41,000  Level Denver Center
02:57 41.4794 -106.4481 80° East 449 517 41,000  Level Denver Center
02:58 41.4992 -106.2947 80° East 442 509 41,000  Level Denver Center
02:59 41.5222 -106.1425 79° East 440 506 41,000  Level Denver Center
03:00 41.5414 -105.9850 81° East 445 512 41,000  Level Denver Center
03:01 41.5644 -105.8078 80° East 440 506 41,000  Level Denver Center
03:02 41.5833 -105.6525 81° East 441 507 41,000  Level Denver Center
03:03 41.6033 -105.4986 80° East 440 506 41,000  Level Denver Center
03:04 41.6250 -105.3175 81° East 443 510 41,000  Level Denver Center
03:05 41.6453 -105.1592 80° East 450 518 41,000  Level Denver Center
03:06 41.6644 -104.9975 81° East 456 525 41,000  Level Denver Center
03:07 41.6867 -104.8078 81° East 462 532 41,000  Level Denver Center
03:08 41.7061 -104.6519 80° East 450 518 41,000  Level Denver Center
03:09 41.7247 -104.4928 81° East 453 521 41,000  Level Denver Center
03:10 41.7431 -104.3331 81° East 456 525 41,000  Level Denver Center
03:11 41.7642 -104.1442 81° East 459 528 41,000  Level Denver Center
03:12 41.7831 -103.9811 81° East 464 534 41,000  Level Denver Center
03:13 41.8011 -103.8161 82° East 467 537 41,000  Level Denver Center
03:14 41.8214 -103.6239 82° East 468 539 41,000  Level Denver Center
03:15 41.8394 -103.4592 82° East 467 537 41,000 60 Level Denver Center
03:16 41.8583 -103.2936 81° East 470 541 41,200 540 Climbing Denver Center
03:17 41.8778 -103.1028 82° East 465 535 42,100 780 Climbing Denver Center
03:18 41.8944 -102.9411 82° East 460 529 42,800 420 Climbing Denver Center
03:19 41.9111 -102.7800 82° East 456 525 43,000 60 Climbing Denver Center
03:20 41.9275 -102.6150 82° East 465 535 43,000  Level Denver Center
03:21 41.9458 -102.4203 83° East 472 543 43,000  Level Denver Center
03:22 41.9631 -102.2536 82° East 472 543 43,000  Level Denver Center
03:23 41.9803 -102.0742 83° East 471 542 43,000  Level Denver Center
03:24 41.9956 -101.9089 83° East 468 539 43,000  Level Denver Center
03:25 42.0114 -101.7397 83° East 474 545 43,000  Level Denver Center
03:26 42.0292 -101.5397 83° East 481 554 43,000  Level Denver Center
03:27 42.0450 -101.3678 83° East 484 557 43,000  Level Denver Center
03:28 42.0597 -101.1942 83° East 486 559 43,000  Level Denver Center
03:29 42.0750 -101.0194 83° East 490 564 43,000  Level Denver Center
03:30 42.0925 -100.8167 83° East 488 562 43,000  Level Denver Center
03:31 42.1053 -100.6467 84° East 479 551 43,000  Level Denver Center
03:32 42.1194 -100.4772 84° East 476 548 43,000  Level Denver Center
03:33 42.1306 -100.3367 84° East 479 551 43,000  Level Minneapolis Center
03:34 42.1442 -100.1575 84° East 481 554 43,000  Level Minneapolis Center
03:35 42.1592 -99.9797 83° East 479 551 43,000  Level Minneapolis Center
03:36 42.1725 -99.8022 84° East 476 548 43,000  Level Minneapolis Center
03:37 42.1847 -99.6253 85° East 474 545 43,000  Level Minneapolis Center
03:38 42.1981 -99.4447 84° East 479 551 43,000  Level Minneapolis Center
03:39 42.2108 -99.2617 85° East 485 558 43,000  Level Minneapolis Center
03:40 42.2233 -99.0808 85° East 484 557 43,000  Level Minneapolis Center
03:41 42.2328 -98.9364 85° East 484 557 43,000  Level Minneapolis Center
03:42 42.2453 -98.7575 85° East 479 551 43,000  Level Minneapolis Center
03:43 42.2558 -98.5769 85° East 480 552 43,000  Level Minneapolis Center
03:44 42.2672 -98.3956 85° East 484 557 43,000  Level Minneapolis Center
03:45 42.2789 -98.2139 85° East 484 557 43,000  Level Minneapolis Center
03:46 42.2889 -98.0350 86° East 479 551 43,000  Level Minneapolis Center
03:47 42.2994 -97.8547 85° East 481 554 43,000  Level Minneapolis Center
03:48 42.3114 -97.6536 85° East 483 556 43,000  Level Minneapolis Center
03:49 42.3217 -97.4706 86° East 487 560 43,000  Level Minneapolis Center
03:50 42.3308 -97.2875 86° East 488 562 43,000  Level Minneapolis Center
03:51 42.3400 -97.1058 86° East 486 559 43,000  Level Minneapolis Center
03:52 42.3500 -96.9233 86° East 486 559 43,000  Level Minneapolis Center
03:53 42.3578 -96.7389 87° East 488 562 43,000  Level Minneapolis Center
03:54 42.3672 -96.5550 86° East 490 564 43,000  Level Minneapolis Center
03:55 42.3753 -96.3697 87° East 491 565 43,000  Level Minneapolis Center
03:56 42.3836 -96.1833 86° East 493 567 43,000  Level Minneapolis Center
03:57 42.3914 -95.9972 87° East 494 568 43,000  Level Minneapolis Center
03:58 42.3983 -95.8119 87° East 494 568 43,000  Level Minneapolis Center
03:59 42.4058 -95.6236 87° East 498 573 43,000  Level Minneapolis Center
04:00 42.4136 -95.4356 87° East 501 577 43,000  Level Minneapolis Center
04:01 42.4286 -95.2506 84° East 495 570 43,000  Level Minneapolis Center
04:02 42.4336 -95.0628 88° East 496 571 43,000  Level Minneapolis Center
04:03 42.4394 -94.8753 88° East 497 572 43,000  Level Minneapolis Center
04:04 42.4456 -94.6867 87° East 500 575 43,000  Level Minneapolis Center
04:05 42.4492 -94.4958 88° East 505 581 43,000  Level Minneapolis Center
04:06 42.4531 -94.3086 88° East 500 575 43,000  Level Minneapolis Center
04:07 42.4594 -94.1289 87° East 500 575 43,000  Level Minneapolis Center
04:08 42.4636 -93.9397 88° East 505 581 43,000  Level Minneapolis Center
04:09 42.4686 -93.7497 88° East 509 586 43,000  Level Minneapolis Center
04:10 42.4719 -93.5608 89° East 509 586 43,000  Level Minneapolis Center
04:11 42.4758 -93.3725 88° East 505 581 43,000  Level Minneapolis Center
04:12 42.4792 -93.1889 89° East 498 573 43,000  Level Minneapolis Center
04:13 42.4800 -93.0758 89° East 500 575 43,000  Level Chicago Center
04:14 42.4828 -92.8889 89° East 501 577 43,000  Level Chicago Center
04:15 42.4864 -92.7047 88° East 497 572 43,000  Level Chicago Center
04:16 42.4900 -92.5189 88° East 498 573 43,000  Level Chicago Center
04:17 42.4964 -92.3367 87° East 492 566 43,000  Level Chicago Center
04:18 42.5028 -92.1172 88° East 493 567 43,000  Level Chicago Center
04:19 42.5069 -91.9358 88° East 490 564 43,000  Level Chicago Center
04:20 42.5139 -91.7536 87° East 493 567 43,000  Level Chicago Center
04:21 42.5136 -91.5700 90° East 499 574 43,000  Level Chicago Center
04:22 42.5125 -91.3861 90° East 500 575 43,000  Level Chicago Center
04:23 42.5117 -91.2044 90° East 490 564 43,000  Level Chicago Center
04:24 42.5108 -91.0236 90° East 488 562 43,000  Level Chicago Center
04:25 42.5092 -90.8428 91° East 485 558 43,000  Level Chicago Center
04:26 42.5075 -90.6614 91° East 486 559 43,000  Level Chicago Center
04:27 42.5092 -90.4756 89° East 495 570 43,000  Level Chicago Center
04:28 42.5075 -90.2864 91° East 500 575 43,000  Level Chicago Center
04:29 42.5044 -90.1000 91° East 502 578 43,000  Level Chicago Center
04:30 42.4986 -89.8731 92° East 503 579 43,000  Level Chicago Center
04:31 42.4958 -89.6856 91° East 501 577 43,000  Level Chicago Center
04:32 42.4939 -89.4964 91° East 503 579 43,000  Level Chicago Center
04:33 42.4897 -89.3042 92° East 507 583 43,000  Level Chicago Center
04:34 42.4831 -89.1069 93° East 517 595 43,000  Level Chicago Center
04:35 42.4786 -88.9142 92° East 517 595 43,000  Level Chicago Center
04:36 42.4744 -88.7228 92° East 514 592 43,000  Level Chicago Center
04:37 42.4708 -88.5308 91° East 514 592 43,000  Level Chicago Center
04:38 42.4644 -88.3411 93° East 509 586 43,000  Level Chicago Center
04:39 42.4594 -88.1519 92° East 507 583 43,000  Level Chicago Center
04:40 42.4536 -87.9608 92° East 509 586 43,000  Level Chicago Center
04:41 42.4472 -87.7714 93° East 508 585 43,000  Level Chicago Center
04:42 42.4406 -87.5750 93° East 507 583 43,000  Level Chicago Center
04:43 42.4333 -87.3844 93° East 509 586 43,000  Level Chicago Center
04:44 42.4267 -87.1903 93° East 514 592 43,000  Level Chicago Center
04:45 42.4175 -86.9947 94° East 520 598 43,000 -60 Level Chicago Center
04:46 42.4100 -86.8006 93° East 519 597 42,900 -1,260 Descending Chicago Center
04:47 42.4014 -86.6056 93° East 525 604 40,500 -2,640 Descending Chicago Center
04:48 42.3936 -86.4161 93° East 512 589 37,700 -2,760 Descending Chicago Center
04:49 42.3853 -86.2361 94° East 489 563 35,000 -2,700 Descending Chicago Center
04:50 42.3761 -86.0569 94° East 484 557 32,300 -2,760 Descending Chicago Center
04:51 42.3667 -85.8742 94° East 489 563 29,500 -2,760 Descending Chicago Center
04:52 42.3578 -85.6919 94° East 491 565 26,800 -2,640 Descending Chicago Center
04:53 42.3489 -85.5167 94° East 479 551 24,200 -2,580 Descending Chicago Center
04:54 42.3403 -85.3489 94° East 459 528 21,600 -2,460 Descending Chicago Center
04:55 42.3317 -85.1889 94° East 438 504 19,300 -1,320 Descending Chicago Center
04:56 42.3222 -85.0311 95° East 427 491 19,000 -240 Descending Chicago Center
04:57 42.3133 -84.8683 94° East 432 497 18,900 -960 Descending Chicago Center
04:58 42.3036 -84.7081 95° East 432 497 17,100 -1,920 Descending Chicago Center
04:59 42.2933 -84.5519 95° East 422 486 15,100 -2,040 Descending Chicago Center
05:00 42.2844 -84.4056 95° East 402 463 13,100 -1,980 Descending Chicago Center
05:01 42.2775 -84.3133 96° East 373 429 11,800 -1,440 Descending Cleveland Center
05:01 42.2706 -84.1950 94° East 365 420 11,100 -840 Descending Cleveland Center
05:02 42.2689 -84.1781 98° East 364 419 11,000 -120 Descending Cleveland Center
05:02 42.2756 -84.0628 85° East 332 382 11,000 -120 Level Cleveland Center
05:03 42.2772 -84.0503 80° East 346 398 10,900 -1,140 Descending Cleveland Center
05:03 42.2994 -83.9508 73° East 312 359 9,900 -1,200 Descending Cleveland Center
05:04 42.3019 -83.9389 74° East 314 361 9,700 -1,620 Descending Cleveland Center
05:04 42.3253 -83.8417 72° East 303 349 8,300 -1,500 Descending Cleveland Center
05:05 42.3267 -83.8289 82° East 307 353 8,200 -1,500 Descending Cleveland Center
05:05 42.3511 -83.7322 71° East 306 352 6,800 -1,500 Descending Cleveland Center
05:06 42.3533 -83.7194 77° East 306 352 6,700 -840 Descending Cleveland Center
05:06 42.3783 -83.6261 70° East 294 338 6,000 -720 Descending Cleveland Center
05:07 42.3800 -83.6131 80° East 299 344 6,000 -240 Level Cleveland Center
05:07 42.4042 -83.5139 72° East 291 335 5,800 -420 Descending Cleveland Center
05:08 42.4050 -83.5008 85° East 293 337 5,600 -1,560 Descending Cleveland Center
05:08 42.4153 -83.4250 80° East 260 299 4,400 -1,380 Descending Cleveland Center
05:09 42.4183 -83.4061 78° East 271 312 4,200 -720 Descending Cleveland Center
05:09 42.4225 -83.3328 86° East 242 278 3,700 -840 Descending Cleveland Center
05:10 42.4169 -83.3169 115° Southeast 247 284 3,400 -720 Descending Cleveland Center
05:10 42.4036 -83.2508 105° East 209 241 3,000 -420 Descending Cleveland Center
05:11 42.3967 -83.2397 130° Southeast 221 254 3,000  Level Cleveland Center
05:11 42.3628 -83.2367 176° South 142 163 3,000  Level Cleveland Center
05:12 42.3544 -83.2356 174° South 157 181 3,000  Level Cleveland Center
05:12 42.3281 -83.2544 208° Southwest 134 154 3,000 -120 Level Cleveland Center
05:13 42.3206 -83.2578 198° South 138 159 2,900 -600 Descending Cleveland Center
05:13 42.2967 -83.2783 212° Southwest 118 136 2,400 -720 Descending Cleveland Center
05:14 42.2908 -83.2808 198° South 127 146 2,200 -720 Descending Cleveland Center
05:14 42.2658 -83.2994 209° Southwest 126 145 1,700 -600 Descending Cleveland Center
05:15 42.2611 -83.3022 204° Southwest 122 140 1,600 -720 Descending Cleveland Center
05:15 42.2347 -83.3233 211° Southwest 133 153 1,000 -720 Descending Cleveland Center
05:16 42.2283 -83.3261 198° South 128 147 900 -360 Descending Cleveland Center